Time;durP1;ratioP1;P1;durP2;ratioP2;P2;SDS_P1;SDS_P2;PMS_P1;PMS_P2;Temp;Humidity;BMP_temperature;BMP_pressure;BME280_temperature;BME280_humidity;BME280_pressure;Samples;Min_cycle;Max_cycle;Signal;HPM_P1;HPM_P2
2022/04/18 00:00:35;;;;;;;;;2.00;2.00;;;;;16.93;27.85;101333.34;5059238;28;45306;-72
2022/04/18 00:03:03;;;;;;;;;3.67;1.00;;;;;17.00;27.75;101354.44;5059059;28;45351;-70
2022/04/18 00:05:33;;;;;;;;;2.33;1.00;;;;;16.79;28.12;101316.81;5058740;28;46334;-70
2022/04/18 00:07:59;;;;;;;;;2.33;1.33;;;;;17.07;27.81;101359.63;5058832;28;45449;-70
2022/04/18 00:10:24;;;;;;;;;3.00;2.00;;;;;16.86;27.59;101323.75;5059250;28;45420;-69
2022/04/18 00:12:50;;;;;;;;;2.00;2.00;;;;;16.95;28.18;101347.44;5058114;28;45374;-71
2022/04/18 00:15:19;;;;;;;;;2.00;2.00;;;;;16.57;27.97;101286.25;5040844;28;46541;-72
2022/04/18 00:17:44;;;;;;;;;2.33;2.00;;;;;16.86;28.29;101349.34;5059033;28;45335;-70
2022/04/18 00:20:10;;;;;;;;;3.00;3.00;;;;;16.04;28.20;101205.00;5058940;28;45465;-70
2022/04/18 00:22:36;;;;;;;;;2.00;2.00;;;;;16.80;28.22;101338.84;5059196;28;45331;-71
2022/04/18 00:25:03;;;;;;;;;2.00;2.00;;;;;16.70;28.23;101322.19;5059668;28;45541;-70
2022/04/18 00:27:29;;;;;;;;;2.00;2.00;;;;;16.66;28.31;101318.72;5059929;28;45448;-71
2022/04/18 00:29:55;;;;;;;;;2.00;1.33;;;;;16.61;28.16;101301.16;5059090;28;45287;-71
2022/04/18 00:32:21;;;;;;;;;2.00;2.00;;;;;16.75;28.26;101329.19;5059092;28;45405;-71
2022/04/18 00:34:47;;;;;;;;;2.00;2.00;;;;;16.58;28.05;101290.63;5058824;28;46036;-70
2022/04/18 00:37:13;;;;;;;;;2.00;2.00;;;;;16.57;27.60;101316.22;5059654;28;45974;-73
2022/04/18 00:39:38;;;;;;;;;2.00;2.00;;;;;16.43;27.72;101287.31;5058975;28;45393;-71
2022/04/18 00:42:04;;;;;;;;;4.00;3.00;;;;;15.99;27.63;101233.25;5058969;28;45332;-71
2022/04/18 00:44:30;;;;;;;;;1.00;1.00;;;;;16.18;27.68;101255.00;5058622;28;45528;-71
2022/04/18 00:46:56;;;;;;;;;4.33;2.00;;;;;16.13;27.28;101255.97;5059200;28;45755;-72
2022/04/18 00:49:21;;;;;;;;;2.00;2.00;;;;;16.46;27.29;101313.69;5058844;28;45480;-74
2022/04/18 00:51:47;;;;;;;;;2.00;2.00;;;;;16.48;27.61;101309.25;5058483;28;45382;-73
2022/04/18 00:54:13;;;;;;;;;1.00;1.00;;;;;16.47;27.56;101304.88;5058876;28;45336;-70
2022/04/18 00:56:40;;;;;;;;;1.67;1.67;;;;;16.45;27.75;101304.03;5058350;28;45458;-72
2022/04/18 00:59:06;;;;;;;;;1.00;1.00;;;;;16.45;27.59;101301.38;5058439;28;45443;-70
2022/04/18 01:01:36;;;;;;;;;3.33;1.33;;;;;16.36;27.82;101298.84;5058583;28;45448;-71
2022/04/18 01:04:02;;;;;;;;;1.00;1.00;;;;;16.40;28.27;101311.16;5057987;28;45675;-68
2022/04/18 01:06:27;;;;;;;;;2.00;2.00;;;;;16.40;27.77;101297.06;5058156;28;45418;-71
2022/04/18 01:08:54;;;;;;;;;2.00;2.00;;;;;16.45;27.81;101306.66;5058390;28;45438;-70
2022/04/18 01:11:20;;;;;;;;;3.00;2.00;;;;;16.35;27.62;101289.19;5058655;28;45481;-71
2022/04/18 01:13:48;;;;;;;;;2.00;2.00;;;;;16.08;28.04;101262.19;5058362;28;45427;-71
2022/04/18 01:16:14;;;;;;;;;2.00;2.00;;;;;16.25;28.02;101293.72;5058459;28;45503;-72
2022/04/18 01:18:41;;;;;;;;;2.00;2.00;;;;;16.13;27.96;101278.00;5058218;28;45418;-71
2022/04/18 01:21:08;;;;;;;;;2.00;2.00;;;;;16.18;28.04;101277.94;5058203;28;45309;-71
2022/04/18 01:23:34;;;;;;;;;4.33;2.33;;;;;16.21;28.32;101299.94;5054490;28;45449;-70
2022/04/18 01:29:00;;;;;;;;;5.00;3.00;;;;;16.00;28.63;101272.00;5058347;28;45451;-69
2022/04/18 01:31:32;;;;;;;;;2.67;2.00;;;;;15.96;28.71;101266.75;5058047;28;45372;-71
2022/04/18 01:33:58;;;;;;;;;2.00;2.00;;;;;16.00;28.83;101255.28;5057761;28;45457;-71
2022/04/18 01:36:25;;;;;;;;;1.00;1.00;;;;;15.91;28.81;101245.69;5057819;28;45537;-71
2022/04/18 01:38:51;;;;;;;;;2.00;2.00;;;;;16.18;29.21;101285.84;5057876;28;45496;-72
2022/04/18 01:41:17;;;;;;;;;3.00;1.33;;;;;16.18;29.21;101283.22;5057839;28;45522;-72
2022/04/18 01:43:42;;;;;;;;;2.00;1.00;;;;;16.19;29.59;101283.22;5057439;28;45438;-71
2022/04/18 01:46:08;;;;;;;;;3.00;1.33;;;;;16.18;29.54;101283.22;5057463;28;45493;-71
2022/04/18 01:48:34;;;;;;;;;3.00;2.00;;;;;16.14;29.35;101278.88;5057809;28;45763;-71
2022/04/18 01:51:00;;;;;;;;;2.00;2.00;;;;;15.91;29.55;101235.13;5057975;28;45737;-71
2022/04/18 01:53:27;;;;;;;;;2.67;2.00;;;;;16.17;29.26;101273.56;5039280;28;46439;-72
2022/04/18 01:55:53;;;;;;;;;1.67;1.67;;;;;16.16;29.36;101271.78;5039271;28;45378;-71
2022/04/18 01:58:23;;;;;;;;;1.67;1.67;;;;;16.07;29.66;101273.66;5057744;28;45430;-72
2022/04/18 02:00:48;;;;;;;;;2.67;2.67;;;;;16.14;29.29;101274.47;5057717;28;45541;-71
2022/04/18 02:03:14;;;;;;;;;3.00;2.00;;;;;16.21;29.33;101277.91;5056581;28;45491;-72
2022/04/18 02:05:47;;;;;;;;;4.00;2.00;;;;;15.98;29.04;101247.34;5057880;28;45620;-72
2022/04/18 02:08:13;;;;;;;;;2.00;2.00;;;;;16.13;29.49;101270.06;5041740;28;45415;-72
2022/04/18 02:10:39;;;;;;;;;1.00;1.00;;;;;16.05;29.76;101278.09;5037803;28;45367;-73
2022/04/18 02:13:06;;;;;;;;;2.00;2.00;;;;;15.93;29.64;101259.75;5050680;28;46589;-71
2022/04/18 02:15:31;;;;;;;;;2.67;1.00;;;;;15.81;29.78;101244.03;5036814;28;45893;-71
2022/04/18 02:17:58;;;;;;;;;0.00;0.00;;;;;15.95;29.83;101263.25;5048299;28;45357;-72
2022/04/18 02:20:25;;;;;;;;;1.33;1.33;;;;;15.75;29.73;101230.91;5057341;28;45506;-71
2022/04/18 02:22:50;;;;;;;;;2.00;2.00;;;;;15.97;29.85;101269.41;5055869;28;45556;-71
2022/04/18 02:25:16;;;;;;;;;1.00;1.00;;;;;15.91;29.97;101256.25;5043314;28;45423;-70
2022/04/18 02:27:41;;;;;;;;;0.67;0.67;;;;;15.97;29.60;101264.09;5037181;28;45470;-70
2022/04/18 02:30:09;;;;;;;;;2.00;2.00;;;;;15.76;29.98;101237.94;5019039;28;45414;-71
2022/04/18 02:32:47;;;;;;;;;2.00;2.00;;;;;15.53;29.64;101201.19;5019216;28;46345;-72
2022/04/18 02:35:14;;;;;;;;;1.00;1.00;;;;;15.62;29.99;101223.09;5054950;28;45248;-72
2022/04/18 02:37:39;;;;;;;;;1.33;1.33;;;;;15.84;30.22;101268.63;5056214;28;45406;-70
2022/04/18 02:40:05;;;;;;;;;2.00;2.00;;;;;15.49;29.75;101195.06;5026621;28;45610;-73
2022/04/18 02:42:31;;;;;;;;;3.00;2.00;;;;;15.77;29.65;101243.19;5035968;28;46245;-72
2022/04/18 02:44:57;;;;;;;;;2.00;2.00;;;;;15.53;29.96;101204.69;5036296;28;45334;-73
2022/04/18 02:47:23;;;;;;;;;2.00;2.00;;;;;15.77;29.61;101253.75;5036736;28;45406;-71
2022/04/18 02:49:52;;;;;;;;;2.33;1.00;;;;;15.75;29.61;101255.53;5037172;28;45590;-72
2022/04/18 02:52:18;;;;;;;;;3.00;2.00;;;;;15.70;29.81;101246.78;5036673;28;45662;-71
2022/04/18 02:54:44;;;;;;;;;2.00;2.00;;;;;15.45;30.16;101222.41;5036979;28;45372;-73
2022/04/18 02:57:11;;;;;;;;;2.00;2.00;;;;;15.48;29.93;101230.28;5037206;28;45359;-70
2022/04/18 02:59:37;;;;;;;;;2.00;2.00;;;;;15.58;29.91;101242.47;5037276;28;45425;-70
2022/04/18 03:02:03;;;;;;;;;3.00;3.00;;;;;15.58;29.90;101247.75;5036549;28;45418;-71
2022/04/18 03:04:29;;;;;;;;;4.00;3.00;;;;;15.48;30.41;101236.44;5036099;28;45394;-69
2022/04/18 03:06:55;;;;;;;;;1.67;1.67;;;;;15.49;30.46;101226.75;5036627;28;45424;-69
2022/04/18 03:09:24;;;;;;;;;2.00;2.00;;;;;15.51;30.49;101224.09;5037948;28;45177;-72
2022/04/18 03:11:50;;;;;;;;;4.00;2.00;;;;;15.30;30.00;101182.97;5036231;28;48024;-72
2022/04/18 03:14:15;;;;;;;;;2.00;2.00;;;;;15.65;29.96;101252.09;5018459;28;45402;-69
2022/04/18 03:16:47;;;;;;;;;2.00;2.00;;;;;15.53;30.46;101236.38;5036213;28;45435;-72
2022/04/18 03:19:13;;;;;;;;;6.00;3.00;;;;;15.56;30.70;101244.25;5018991;28;45597;-71
2022/04/18 03:21:40;;;;;;;;;2.00;2.00;;;;;15.54;30.50;101246.06;5039686;28;45411;-71
2022/04/18 03:24:06;;;;;;;;;2.00;2.00;;;;;15.42;30.60;101230.34;5039762;28;45557;-70
2022/04/18 03:26:33;;;;;;;;;2.00;2.00;;;;;15.45;30.68;101219.75;5039896;28;45426;-73
2022/04/18 03:28:59;;;;;;;;;2.33;2.33;;;;;15.62;30.86;101241.56;5022017;28;45461;-71
2022/04/18 03:31:24;;;;;;;;;2.00;2.00;;;;;15.57;30.50;101231.97;5021523;28;46331;-71
2022/04/18 03:33:51;;;;;;;;;2.33;2.00;;;;;15.48;30.56;101233.78;5039936;28;45482;-71
2022/04/18 03:41:45;;;;;;;;;4.00;3.25;;;;;15.32;30.83;101233.97;5039291;28;45788;-71
2022/04/18 03:44:11;;;;;;;;;2.00;2.00;;;;;14.90;30.71;101176.31;5039655;28;45720;-72
2022/04/18 03:46:37;;;;;;;;;5.33;3.00;;;;;15.22;30.57;101236.69;5039498;28;45982;-69
2022/04/18 03:49:02;;;;;;;;;2.00;2.00;;;;;15.09;30.80;101224.50;5039858;28;45479;-68
2022/04/18 03:51:28;;;;;;;;;2.00;2.00;;;;;15.14;30.52;101233.25;5039286;28;46151;-71
2022/04/18 03:53:53;;;;;;;;;2.00;2.00;;;;;14.97;30.69;101209.66;5040205;28;45482;-72
2022/04/18 03:56:19;;;;;;;;;3.00;2.00;;;;;15.04;31.22;101226.28;5040063;28;45495;-71
2022/04/18 03:58:48;;;;;;;;;3.00;2.25;;;;;14.86;30.83;101200.97;5039356;28;45408;-72
2022/04/18 04:01:14;;;;;;;;;3.00;3.00;;;;;14.90;30.97;101210.59;5039224;28;46134;-73
2022/04/18 04:03:40;;;;;;;;;2.75;2.75;;;;;14.96;30.97;101236.03;5039339;28;45384;-71
2022/04/18 04:06:08;;;;;;;;;2.00;2.00;;;;;14.94;31.20;101225.50;5040071;28;45317;-71
2022/04/18 04:08:34;;;;;;;;;3.00;2.50;;;;;14.94;31.10;101221.97;5039796;28;45434;-72
2022/04/18 04:11:00;;;;;;;;;1.00;1.00;;;;;14.70;31.37;101181.75;5038851;28;46592;-73
2022/04/18 04:13:26;;;;;;;;;4.00;3.00;;;;;14.87;31.46;101207.09;5021683;28;45619;-71
2022/04/18 04:15:51;;;;;;;;;2.00;2.00;;;;;14.94;31.13;101228.13;5039515;28;45391;-69
2022/04/18 04:18:17;;;;;;;;;3.75;2.00;;;;;14.84;31.36;101210.63;5039697;28;45514;-68
2022/04/18 04:20:42;;;;;;;;;2.00;2.00;;;;;14.38;31.49;101135.38;5039064;28;46123;-70
2022/04/18 04:23:08;;;;;;;;;3.00;2.00;;;;;14.92;31.79;101221.13;5039252;28;45454;-70
2022/04/18 04:25:36;;;;;;;;;3.00;3.00;;;;;14.27;32.22;101129.31;5039152;28;45321;-70
2022/04/18 04:28:02;;;;;;;;;0.00;0.00;;;;;14.56;31.74;101183.59;5039762;28;45426;-71
2022/04/18 04:30:28;;;;;;;;;3.00;3.00;;;;;14.60;31.49;101202.03;5039307;28;45408;-71
2022/04/18 04:32:53;;;;;;;;;4.75;3.75;;;;;14.74;31.85;101222.16;5038958;28;45224;-70
2022/04/18 04:35:19;;;;;;;;;2.50;2.50;;;;;14.70;31.50;101220.41;5039313;28;45470;-69
2022/04/18 04:37:44;;;;;;;;;2.00;2.00;;;;;14.62;31.61;101217.84;5039726;28;45507;-69
2022/04/18 04:40:11;;;;;;;;;6.25;3.00;;;;;14.45;31.51;101202.13;5039086;28;45571;-68
2022/04/18 04:42:38;;;;;;;;;3.75;2.00;;;;;14.58;31.73;101232.78;5038928;28;45260;-68
2022/04/18 04:45:04;;;;;;;;;3.75;2.00;;;;;14.56;32.30;101233.69;5038365;28;45472;-70
2022/04/18 04:47:29;;;;;;;;;2.00;2.00;;;;;14.69;32.18;101234.47;5039045;28;45533;-68
2022/04/18 04:49:55;;;;;;;;;3.00;3.00;;;;;14.67;32.10;101228.34;5038398;28;46386;-67
2022/04/18 04:52:21;;;;;;;;;2.50;2.25;;;;;14.66;31.36;101226.59;5038459;28;45332;-72
2022/04/18 04:54:46;;;;;;;;;3.00;3.00;;;;;14.67;31.90;101237.13;5038610;28;45356;-68
2022/04/18 04:57:13;;;;;;;;;4.50;3.50;;;;;14.59;31.72;101221.38;5045567;28;45654;-73
2022/04/18 04:59:38;;;;;;;;;2.50;2.50;;;;;14.60;32.03;101224.88;5052102;28;45327;-71
2022/04/18 05:02:05;;;;;;;;;2.75;2.75;;;;;14.61;31.96;101230.13;5057529;28;45319;-68
2022/04/18 05:04:34;;;;;;;;;2.00;2.00;;;;;14.49;32.56;101221.41;5058439;28;45275;-70
2022/04/18 05:07:00;;;;;;;;;2.00;2.00;;;;;14.56;32.26;101228.41;5058900;28;45528;-72
2022/04/18 05:09:26;;;;;;;;;3.50;3.00;;;;;14.10;31.65;101162.81;5042726;28;45642;-72
2022/04/18 05:11:55;;;;;;;;;2.00;2.00;;;;;14.26;32.17;101195.19;5037997;28;45573;-72
2022/04/18 05:14:21;;;;;;;;;3.25;2.50;;;;;14.08;32.24;101173.34;5038497;28;45502;-72
2022/04/18 05:16:47;;;;;;;;;3.25;2.25;;;;;14.39;32.46;101234.63;5038359;28;45465;-71
2022/04/18 05:19:13;;;;;;;;;2.00;2.00;;;;;14.26;32.02;101213.63;5037812;28;45666;-72
2022/04/18 05:21:39;;;;;;;;;0.00;0.00;;;;;14.31;32.34;101228.53;5038121;28;45434;-68
2022/04/18 05:24:05;;;;;;;;;5.75;3.75;;;;;14.38;32.31;101237.28;5037769;28;45409;-71
2022/04/18 05:26:34;;;;;;;;;2.25;2.25;;;;;13.96;32.21;101176.91;5038351;28;45531;-71
2022/04/18 05:29:00;;;;;;;;;4.50;2.75;;;;;14.38;32.39;101246.06;5037736;28;45537;-72
2022/04/18 05:31:28;;;;;;;;;5.75;3.00;;;;;14.11;32.36;101204.06;5037710;28;45383;-74
2022/04/18 05:33:54;;;;;;;;;3.75;3.00;;;;;14.32;32.55;101239.94;5038005;28;45472;-71
2022/04/18 05:36:20;;;;;;;;;6.25;4.00;;;;;14.24;32.19;101221.56;5037869;28;45315;-71
2022/04/18 05:38:45;;;;;;;;;2.00;2.00;;;;;14.39;31.99;101247.81;5037357;28;45357;-69
2022/04/18 05:41:12;;;;;;;;;3.00;3.00;;;;;14.40;32.26;101248.69;5037174;28;45401;-72
2022/04/18 05:43:38;;;;;;;;;3.25;3.00;;;;;14.17;32.57;101217.19;5036580;28;45746;-73
2022/04/18 05:46:03;;;;;;;;;2.75;2.00;;;;;14.03;32.26;101190.94;5051329;28;45517;-71
2022/04/18 05:48:29;;;;;;;;;3.00;1.50;;;;;14.17;32.51;101204.03;5053722;28;46041;-71
2022/04/18 05:50:54;;;;;;;;;2.50;2.00;;;;;14.48;32.56;101264.47;5057209;28;45391;-73
2022/04/18 05:53:26;;;;;;;;;2.75;1.00;;;;;14.55;32.15;101264.44;5039525;28;45370;-69
2022/04/18 05:55:53;;;;;;;;;4.00;3.00;;;;;14.42;32.17;101237.25;5052213;28;45606;-71
2022/04/18 05:58:18;;;;;;;;;4.00;2.25;;;;;14.49;31.89;101235.44;5037369;28;45656;-70
2022/04/18 06:00:44;;;;;;;;;2.50;2.50;;;;;14.67;32.12;101263.50;5037890;28;45462;-72
2022/04/18 06:03:11;;;;;;;;;2.00;2.00;;;;;14.76;31.77;101271.34;5037017;28;45345;-70
2022/04/18 06:05:36;;;;;;;;;3.00;3.00;;;;;14.82;31.91;101273.94;5036672;28;45427;-71
2022/04/18 06:08:03;;;;;;;;;5.00;3.75;;;;;14.45;32.23;101206.47;5037045;28;45521;-71
2022/04/18 06:10:30;;;;;;;;;4.75;3.75;;;;;14.55;32.17;101209.09;5037585;28;45521;-71
2022/04/18 06:12:55;;;;;;;;;2.75;2.75;;;;;15.01;32.18;101273.81;5034241;28;45428;-70
2022/04/18 06:15:21;;;;;;;;;2.50;1.50;;;;;15.09;31.99;101266.72;5050510;28;45561;-69
2022/04/18 06:17:49;;;;;;;;;3.25;2.00;;;;;15.04;31.68;101242.13;5056553;28;45375;-74
2022/04/18 06:20:16;;;;;;;;;2.00;2.00;;;;;15.31;31.55;101264.75;5055955;28;45559;-73
2022/04/18 06:22:42;;;;;;;;;3.00;3.00;;;;;15.39;30.69;101277.88;5056783;28;45492;-72
2022/04/18 06:25:07;;;;;;;;;3.25;3.00;;;;;15.41;31.19;101263.78;5057118;28;45572;-71
2022/04/18 06:27:33;;;;;;;;;3.00;3.00;;;;;15.37;30.76;101269.09;5056846;28;46356;-73
2022/04/18 06:29:59;;;;;;;;;3.50;3.50;;;;;15.41;30.97;101276.09;5056230;28;45529;-72
2022/04/18 06:32:25;;;;;;;;;3.00;3.00;;;;;15.37;31.02;101266.47;5043779;28;45538;-73
2022/04/18 06:34:54;;;;;;;;;4.00;2.00;;;;;15.46;30.73;101280.44;5043342;28;45547;-72
2022/04/18 06:37:19;;;;;;;;;2.00;2.00;;;;;15.34;30.47;101248.88;5035695;28;46925;-68
2022/04/18 06:39:45;;;;;;;;;3.00;2.75;;;;;15.49;30.89;101266.34;5048996;28;45263;-70
2022/04/18 06:42:10;;;;;;;;;3.25;2.50;;;;;15.58;30.61;101278.56;5056257;28;45292;-69
2022/04/18 06:44:36;;;;;;;;;4.00;2.67;;;;;15.35;30.78;101234.81;5057057;28;45288;-68
2022/04/18 06:47:02;;;;;;;;;5.67;3.67;;;;;15.41;30.49;101252.34;5056342;28;46152;-68
2022/04/18 06:49:27;;;;;;;;;2.00;2.00;;;;;15.53;30.58;101267.19;5056462;28;45495;-69
2022/04/18 06:51:53;;;;;;;;;2.00;2.00;;;;;15.63;30.76;101279.41;5056549;28;45492;-69
2022/04/18 06:54:19;;;;;;;;;3.33;2.00;;;;;15.56;30.43;101261.88;5056415;28;45465;-72
2022/04/18 06:57:00;;;;;;;;;3.67;2.33;;;;;15.69;30.75;101280.22;5038761;28;46884;-70
2022/04/18 06:59:30;;;;;;;;;7.25;6.75;;;;;15.79;30.66;101278.38;5056930;28;45363;-71
2022/04/18 07:01:57;;;;;;;;;4.00;4.00;;;;;15.87;30.36;101281.84;5056083;28;45517;-71
2022/04/18 07:04:24;;;;;;;;;6.25;5.50;;;;;15.88;30.32;101280.06;5056644;28;45448;-71
2022/04/18 07:06:50;;;;;;;;;6.25;5.00;;;;;15.76;30.36;101286.34;5038610;28;46883;-68
2022/04/18 07:09:19;;;;;;;;;5.33;4.00;;;;;15.58;30.46;101263.59;5040927;28;45746;-69
2022/04/18 07:11:46;;;;;;;;;6.00;5.00;;;;;15.65;30.78;101275.84;5053119;28;45327;-71
2022/04/18 07:14:16;;;;;;;;;5.25;4.50;;;;;15.69;31.14;101277.59;5031931;28;45541;-71
2022/04/18 07:16:45;;;;;;;;;4.75;4.50;;;;;15.54;31.05;101251.34;5040469;28;45662;-74
2022/04/18 07:19:11;;;;;;;;;3.75;3.75;;;;;15.68;31.48;101281.13;5053580;28;45680;-70
2022/04/18 07:21:37;;;;;;;;;3.00;3.00;;;;;15.70;31.15;101273.19;5053541;28;45647;-70
2022/04/18 07:24:03;;;;;;;;;3.00;3.00;;;;;15.87;31.12;101268.63;5054359;28;45483;-70
2022/04/18 07:26:29;;;;;;;;;5.00;4.67;;;;;15.90;30.89;101276.50;5053564;28;45522;-71
2022/04/18 07:28:55;;;;;;;;;4.33;3.33;;;;;15.92;30.82;101278.25;5052998;28;45525;-68
2022/04/18 07:31:20;;;;;;;;;4.75;4.75;;;;;15.84;31.41;101266.00;5053813;28;45449;-72
2022/04/18 07:33:46;;;;;;;;;7.25;5.00;;;;;15.66;31.37;101234.47;5054900;28;45616;-69
2022/04/18 07:36:16;;;;;;;;;4.50;4.00;;;;;15.89;31.44;101248.31;5053894;28;45418;-72
2022/04/18 07:38:51;;;;;;;;;4.00;4.00;;;;;16.04;30.99;101247.28;5054258;28;45466;-70
2022/04/18 07:41:26;;;;;;;;;3.33;3.33;;;;;16.09;31.11;101248.09;5035797;28;45555;-71
2022/04/18 07:43:53;;;;;;;;;3.67;3.00;;;;;16.31;30.59;101256.63;5053670;28;45487;-74
2022/04/18 07:46:19;;;;;;;;;4.00;4.00;;;;;16.66;31.05;101272.91;5053788;28;45742;-67
2022/04/18 07:48:47;;;;;;;;;4.00;4.00;;;;;16.81;30.47;101277.97;5053804;28;45307;-69
2022/04/18 07:51:32;;;;;;;;;3.33;3.33;;;;;16.94;30.62;101274.25;5054202;28;45536;-70
2022/04/18 07:53:58;;;;;;;;;3.33;3.00;;;;;16.96;30.55;101258.34;5053771;28;45608;-67
2022/04/18 07:56:28;;;;;;;;;6.00;4.00;;;;;17.10;30.20;101260.75;5052010;28;46482;-73
2022/04/18 07:58:54;;;;;;;;;4.33;4.00;;;;;17.26;30.32;101264.91;5053107;28;46035;-70
2022/04/18 08:01:24;;;;;;;;;5.00;4.00;;;;;17.34;30.28;101262.09;5053597;28;45258;-69
2022/04/18 08:03:52;;;;;;;;;5.33;3.00;;;;;17.45;30.61;101264.59;5034222;28;46015;-70
2022/04/18 08:06:18;;;;;;;;;4.00;4.00;;;;;17.57;30.10;101272.31;5042955;28;45804;-69
2022/04/18 08:08:45;;;;;;;;;4.67;4.00;;;;;17.45;29.79;101260.16;5051634;28;45529;-71
2022/04/18 08:11:15;;;;;;;;;5.00;5.00;;;;;17.43;29.81;101279.63;5054097;28;45647;-73
2022/04/18 08:13:46;;;;;;;;;5.00;5.00;;;;;17.25;29.95;101260.53;5055031;28;45697;-67
2022/04/18 08:16:12;;;;;;;;;4.00;4.00;;;;;17.36;30.44;101271.78;5054681;28;46045;-70
2022/04/18 08:18:39;;;;;;;;;7.00;5.00;;;;;17.41;30.75;101271.69;5055447;28;45908;-71
2022/04/18 08:21:07;;;;;;;;;5.00;4.00;;;;;17.53;30.21;101278.53;5054868;28;46509;-71
2022/04/18 08:23:33;;;;;;;;;4.00;3.00;;;;;17.59;30.12;101260.78;5055097;28;45418;-70
2022/04/18 08:25:59;;;;;;;;;3.67;3.67;;;;;17.68;29.82;101262.38;5035940;28;46170;-71
2022/04/18 08:28:26;;;;;;;;;6.67;4.00;;;;;17.64;29.75;101234.19;5043176;28;46046;-74
2022/04/18 08:30:54;;;;;;;;;4.33;4.33;;;;;17.89;29.49;101262.88;5053818;28;45413;-70
2022/04/18 08:33:20;;;;;;;;;4.00;4.00;;;;;18.01;29.72;101263.53;5055500;28;45575;-70
2022/04/18 08:35:46;;;;;;;;;3.00;3.00;;;;;18.14;29.47;101265.91;5056926;28;45537;-72
2022/04/18 08:38:12;;;;;;;;;5.67;4.33;;;;;17.98;29.26;101222.94;5036352;28;45465;-73
2022/04/18 08:40:42;;;;;;;;;5.33;4.67;;;;;18.34;29.55;101284.03;5056823;28;45546;-75
2022/04/18 08:43:08;;;;;;;;;5.00;5.00;;;;;18.25;28.71;101228.56;5055051;28;45385;-71
2022/04/18 08:45:36;;;;;;;;;5.00;5.00;;;;;18.48;29.12;101266.06;5056343;28;45507;-72
2022/04/18 08:53:32;;;;;;;;;5.67;5.67;;;;;18.48;28.14;101257.22;5050868;28;45496;-70
2022/04/18 08:55:59;;;;;;;;;7.00;7.00;;;;;18.12;27.92;101214.72;5055900;28;45405;-72
2022/04/18 08:58:28;;;;;;;;;6.00;6.00;;;;;18.40;27.98;101260.91;5055739;28;45470;-73
2022/04/18 09:00:56;;;;;;;;;6.33;6.00;;;;;18.23;28.12;101207.41;5039059;28;45628;-69
2022/04/18 09:03:22;;;;;;;;;6.00;5.33;;;;;18.55;28.07;101261.47;5056242;28;45572;-72
2022/04/18 09:05:48;;;;;;;;;4.33;4.00;;;;;18.63;27.90;101256.91;5056642;28;45572;-71
2022/04/18 09:08:14;;;;;;;;;8.00;6.33;;;;;18.60;27.77;101254.28;5039014;28;45489;-71
2022/04/18 09:10:41;;;;;;;;;7.67;6.33;;;;;18.63;27.81;101255.09;5059299;28;45302;-70
2022/04/18 09:13:09;;;;;;;;;5.33;5.33;;;;;18.67;27.58;101260.34;5058014;28;45620;-70
2022/04/18 09:15:37;;;;;;;;;6.00;5.67;;;;;18.74;27.23;101261.94;5057878;28;45329;-70
2022/04/18 09:18:10;;;;;;;;;5.33;5.33;;;;;18.82;28.04;101257.38;5057878;28;45386;-71
2022/04/18 09:20:59;;;;;;;;;5.67;5.67;;;;;18.85;27.49;101236.06;5043765;28;45315;-70
2022/04/18 09:23:30;;;;;;;;;6.00;6.00;;;;;18.84;27.31;101213.09;5055545;28;45479;-71
2022/04/18 09:26:10;;;;;;;;;6.33;5.33;;;;;19.17;26.99;101251.19;5056483;28;46846;-71
2022/04/18 09:28:40;;;;;;;;;6.33;6.00;;;;;19.20;27.19;101229.84;5058000;28;45731;-70
2022/04/18 09:31:14;;;;;;;;;6.67;6.00;;;;;19.38;27.37;101248.88;5058208;28;45973;-72
2022/04/18 09:33:44;;;;;;;;;8.33;8.00;;;;;19.45;27.03;101245.13;5058777;28;45455;-70
2022/04/18 09:36:13;;;;;;;;;11.00;8.00;;;;;19.44;27.16;101232.78;5058335;28;45503;-70
2022/04/18 09:38:51;;;;;;;;;11.33;8.67;;;;;19.58;27.01;101241.25;5058326;28;45335;-70
2022/04/18 09:41:22;;;;;;;;;6.67;5.67;;;;;19.65;26.98;101242.81;5058022;28;45478;-69
2022/04/18 09:43:49;;;;;;;;;10.67;9.00;;;;;19.74;27.20;101236.38;5058616;28;45446;-71
2022/04/18 09:46:15;;;;;;;;;12.33;10.67;;;;;19.89;27.13;101241.28;5058683;28;45421;-71
2022/04/18 09:48:42;;;;;;;;;12.33;10.67;;;;;19.99;27.37;101243.69;5057820;28;45526;-69
2022/04/18 09:51:16;;;;;;;;;9.67;8.67;;;;;20.06;30.84;101238.13;5058291;28;45807;-69
2022/04/18 09:53:45;;;;;;;;;8.33;7.00;;;;;20.01;30.59;101201.97;5058115;28;45205;-70
2022/04/18 09:56:15;;;;;;;;;8.67;7.33;;;;;20.32;27.39;101234.69;5058092;28;46252;-71
2022/04/18 09:58:41;;;;;;;;;9.00;8.00;;;;;20.32;26.15;101210.75;5058043;28;45594;-70
2022/04/18 10:01:07;;;;;;;;;11.33;7.33;;;;;20.55;26.65;101241.09;5057313;28;45595;-72
2022/04/18 10:03:34;;;;;;;;;8.67;8.33;;;;;20.65;26.24;101231.06;5057593;28;45616;-70
2022/04/18 10:06:01;;;;;;;;;11.33;9.33;;;;;20.63;26.51;101215.13;5057045;28;46105;-70
2022/04/18 10:08:28;;;;;;;;;8.00;6.67;;;;;20.77;26.06;101205.84;5056893;28;45432;-70
2022/04/18 10:10:58;;;;;;;;;8.67;8.67;;;;;20.92;25.68;101224.81;5055948;28;45532;-71
2022/04/18 10:13:26;;;;;;;;;5.67;4.00;;;;;20.95;25.44;101214.09;5039269;28;45352;-71
2022/04/18 10:15:52;;;;;;;;;10.00;9.00;;;;;21.02;25.63;101213.88;5056974;28;45641;-70
2022/04/18 10:18:19;;;;;;;;;4.67;4.00;;;;;20.98;25.29;101206.94;5057187;28;45358;-71
2022/04/18 10:20:53;;;;;;;;;12.33;9.00;;;;;21.13;25.65;101220.56;5055997;28;45470;-71
2022/04/18 10:23:22;;;;;;;;;11.00;8.00;;;;;21.17;24.83;101218.69;5057173;28;45336;-69
2022/04/18 10:26:06;;;;;;;;;9.33;8.00;;;;;21.05;24.88;101209.31;5056584;28;45414;-71
2022/04/18 10:28:38;;;;;;;;;7.67;7.67;;;;;21.20;24.63;101226.56;5056413;28;45390;-71
2022/04/18 10:31:12;;;;;;;;;9.67;6.67;;;;;21.26;24.82;101226.38;5056500;28;45190;-71
2022/04/18 10:33:40;;;;;;;;;8.67;8.33;;;;;21.16;23.96;101207.13;5057088;28;45413;-69
2022/04/18 10:36:07;;;;;;;;;10.00;8.00;;;;;21.19;24.69;101208.84;5056594;28;45583;-70
2022/04/18 10:38:36;;;;;;;;;9.00;9.00;;;;;21.30;24.57;101209.31;5056568;28;45517;-70
2022/04/18 10:41:15;;;;;;;;;10.00;6.67;;;;;21.32;24.29;101196.81;5056603;28;45473;-69
2022/04/18 10:44:08;;;;;;;;;8.00;5.33;;;;;21.55;24.34;101208.50;5057134;28;45432;-71
2022/04/18 10:46:37;;;;;;;;;6.33;6.33;;;;;21.60;24.63;101202.06;5056548;28;46507;-70
2022/04/18 10:49:15;;;;;;;;;5.00;5.00;;;;;21.74;24.01;101206.03;5056387;28;45453;-71
2022/04/18 10:51:43;;;;;;;;;8.00;7.00;;;;;21.82;23.60;101209.28;5056502;28;45447;-69
2022/04/18 10:54:22;;;;;;;;;9.00;8.00;;;;;21.60;23.72;101155.91;5056600;28;45452;-71
2022/04/18 10:56:57;;;;;;;;;6.67;5.33;;;;;21.83;23.90;101199.47;5056195;28;45986;-71
2022/04/18 10:59:27;;;;;;;;;6.00;6.00;;;;;21.73;23.11;101170.50;5054896;28;45432;-69
2022/04/18 11:01:56;;;;;;;;;7.00;5.00;;;;;21.87;23.16;101171.78;5056693;28;45414;-70
2022/04/18 11:04:41;;;;;;;;;4.67;4.67;;;;;22.00;22.93;101178.38;5056956;28;45416;-71
2022/04/18 11:07:08;;;;;;;;;5.33;5.00;;;;;22.13;23.05;101184.09;5056043;28;45434;-69
2022/04/18 11:09:42;;;;;;;;;6.33;6.00;;;;;22.22;23.03;101195.31;5055978;28;45449;-70
2022/04/18 11:12:16;;;;;;;;;6.00;6.00;;;;;22.23;23.33;101194.41;5055921;28;45212;-70
2022/04/18 11:14:54;;;;;;;;;6.00;6.00;;;;;22.30;26.07;101191.47;5056250;28;45489;-69
2022/04/18 11:17:29;;;;;;;;;5.00;5.00;;;;;22.33;24.29;101196.69;5055733;28;46222;-69
2022/04/18 11:19:55;;;;;;;;;5.00;4.33;;;;;22.32;24.65;101182.47;5056138;28;45355;-71
2022/04/18 11:22:22;;;;;;;;;6.00;4.33;;;;;22.47;24.54;101186.34;5056228;28;45368;-69
2022/04/18 11:24:51;;;;;;;;;6.33;5.00;;;;;22.54;22.38;101179.84;5056824;28;45265;-71
2022/04/18 11:27:20;;;;;;;;;6.00;6.00;;;;;22.39;22.59;101169.75;5055311;28;48060;-70
2022/04/18 11:29:52;;;;;;;;;10.33;9.67;;;;;22.33;22.27;101178.91;5057023;28;45930;-71
2022/04/18 11:32:22;;;;;;;;;36.25;29.75;;;;;22.20;22.65;101169.59;5054927;28;45489;-72
2022/04/18 11:34:49;;;;;;;;;69.25;54.75;;;;;22.17;23.28;101177.72;5056664;28;45437;-72
2022/04/18 11:37:26;;;;;;;;;134.50;122.75;;;;;22.18;25.21;101179.44;5056158;28;45424;-75
2022/04/18 11:40:04;;;;;;;;;62.25;49.00;;;;;22.22;23.07;101173.09;5056178;28;45498;-71